createdAt,value
2023-10-13T00:01:15.912Z,16.6
2023-10-13T00:03:17.848Z,16.6
2023-10-13T00:05:19.866Z,16.6
2023-10-13T00:07:24.834Z,16.6
2023-10-13T00:09:26.855Z,16.6
2023-10-13T00:11:28.707Z,16.6
2023-10-13T00:13:30.703Z,16.6
2023-10-13T00:15:32.663Z,16.6
2023-10-13T00:17:34.646Z,16.5
2023-10-13T00:21:41.638Z,16.5
2023-10-13T00:28:50.057Z,16.5
2023-10-13T00:30:52.013Z,16.5
2023-10-13T00:32:54.012Z,16.5
2023-10-13T00:34:59.046Z,16.5
2023-10-13T00:37:01.068Z,16.5
2023-10-13T00:39:02.930Z,16.5
2023-10-13T00:41:05.061Z,16.6
2023-10-13T00:43:06.891Z,16.6
2023-10-13T00:45:08.857Z,16.6
2023-10-13T00:47:10.901Z,16.6
2023-10-13T00:49:15.919Z,16.6
2023-10-13T00:51:17.814Z,16.6
2023-10-13T00:53:19.770Z,16.6
2023-10-13T00:55:21.780Z,16.6
2023-10-13T00:57:23.717Z,16.6
2023-10-13T00:59:25.651Z,16.6
2023-10-13T01:01:27.725Z,16.5
2023-10-13T01:03:32.642Z,16.6
2023-10-13T01:07:36.642Z,16.5
2023-10-13T01:09:38.563Z,16.6
2023-10-13T01:19:51.474Z,16.6
2023-10-13T01:21:53.435Z,16.6
2023-10-13T01:28:20.225Z,16.6
2023-10-13T01:30:25.251Z,16.7
2023-10-13T01:32:27.523Z,16.7
2023-10-13T01:34:29.164Z,16.6
2023-10-13T01:40:35.312Z,16.6
2023-10-13T01:42:36.964Z,16.6
2023-10-13T01:44:42.006Z,16.6
2023-10-13T01:46:44.006Z,16.7
2023-10-13T01:48:45.918Z,16.6
2023-10-13T01:50:47.913Z,16.6
2023-10-13T01:58:58.816Z,16.7
2023-10-13T02:01:00.829Z,16.7
2023-10-13T02:03:02.795Z,16.6
2023-10-13T02:05:04.736Z,16.6
2023-10-13T02:07:06.670Z,16.6
2023-10-13T02:09:08.621Z,16.6
2023-10-13T02:13:15.661Z,16.6
2023-10-13T02:17:19.560Z,16.6
2023-10-13T02:18:22.058Z,16.6
2023-10-13T02:20:24.132Z,16.6
2023-10-13T02:22:25.985Z,16.6
2023-10-13T02:24:27.922Z,16.6
2023-10-13T02:26:32.962Z,16.6
2023-10-13T02:28:35.018Z,16.6
2023-10-13T02:30:36.869Z,16.7
2023-10-13T02:32:38.883Z,16.7
2023-10-13T02:34:40.855Z,16.7
2023-10-13T02:36:42.753Z,16.7
2023-10-13T02:38:44.716Z,16.6
2023-10-13T02:40:49.764Z,16.6
2023-10-13T02:42:51.711Z,16.6
2023-10-13T02:44:53.695Z,16.6
2023-10-13T02:46:55.724Z,16.6
2023-10-13T02:48:57.605Z,16.6
2023-10-13T02:50:59.587Z,16.5
2023-10-13T02:53:01.523Z,16.5
2023-10-13T02:59:10.504Z,16.5
2023-10-13T03:01:14.097Z,16.5
2023-10-13T03:03:15.990Z,16.5
2023-10-13T03:05:19.515Z,16.5
2023-10-13T03:07:19.875Z,16.5
2023-10-13T03:09:25.025Z,16.5
2023-10-13T03:11:26.840Z,16.5
2023-10-13T03:13:28.873Z,16.5
2023-10-13T03:14:31.347Z,16.5
2023-10-13T03:16:33.381Z,16.5
2023-10-13T03:18:35.238Z,16.4
2023-10-13T03:20:37.234Z,16.4
2023-10-13T03:22:42.317Z,16.4
2023-10-13T03:24:44.230Z,16.4
2023-10-13T03:26:46.193Z,16.4
2023-10-13T03:30:50.275Z,16.3
2023-10-13T03:32:52.107Z,16.3
2023-10-13T03:34:54.047Z,16.4
2023-10-13T03:43:05.013Z,16.3
2023-10-13T03:45:06.966Z,16.3
2023-10-13T03:47:08.921Z,16.3
2023-10-13T03:49:10.931Z,16.4
2023-10-13T03:51:15.966Z,16.3
2023-10-13T03:53:17.896Z,16.3
2023-10-13T03:57:21.848Z,16.3
2023-10-13T03:59:24.085Z,16.3
2023-10-13T04:01:25.843Z,16.3
2023-10-13T04:03:27.765Z,16.3
2023-10-13T04:05:32.765Z,16.3
2023-10-13T04:07:34.758Z,16.3
2023-10-13T04:09:36.711Z,16.3
2023-10-13T04:10:39.270Z,16.3
2023-10-13T04:18:50.181Z,16.2
2023-10-13T04:22:54.109Z,16.2
2023-10-13T04:24:56.066Z,16.2
2023-10-13T04:26:58.030Z,16.2
2023-10-13T04:28:59.976Z,16.2
2023-10-13T04:31:02.035Z,16.2
2023-10-13T04:33:07.066Z,16.2
2023-10-13T04:43:16.878Z,16.2
2023-10-13T04:45:18.812Z,16.2
2023-10-13T04:49:25.883Z,16.2
2023-10-13T04:51:27.789Z,16.2
2023-10-13T05:12:05.151Z,16
2023-10-13T05:14:10.217Z,16
2023-10-13T05:16:12.204Z,16
2023-10-13T05:18:14.152Z,16
2023-10-13T05:30:29.043Z,16.2
2023-10-13T05:32:31.141Z,16.2
2023-10-13T05:34:33.043Z,16.3
2023-10-13T05:36:34.941Z,16.3
2023-10-13T05:40:38.911Z,16.5
2023-10-13T05:42:43.931Z,16.8
2023-10-13T05:44:45.902Z,16.9
2023-10-13T05:46:47.937Z,17
2023-10-13T05:48:49.843Z,17.1
2023-10-13T05:50:51.817Z,17.1
2023-10-13T05:52:53.796Z,17.1
2023-10-13T05:54:55.733Z,17.2
2023-10-13T05:57:00.815Z,17.3
2023-10-13T05:59:02.782Z,17.2
2023-10-13T06:01:04.740Z,17.2
2023-10-13T06:10:18.217Z,17.1
2023-10-13T06:20:28.010Z,17.1
2023-10-13T06:22:30.002Z,17.2
2023-10-13T06:32:42.969Z,17.2
2023-10-13T06:34:44.923Z,17.3
2023-10-13T06:36:46.779Z,17.3
2023-10-13T06:42:55.751Z,17.3
2023-10-13T06:44:57.728Z,17.3
2023-10-13T06:46:59.766Z,17.3
2023-10-13T06:49:01.666Z,17.3
2023-10-13T06:53:08.678Z,17.3
2023-10-13T06:55:10.629Z,17.3
2023-10-13T06:57:12.592Z,17.2
2023-10-13T06:58:15.264Z,17.3
2023-10-13T07:00:17.071Z,17.3
2023-10-13T07:02:27.314Z,17.3
2023-10-13T07:04:21.060Z,17.3
2023-10-13T07:10:29.980Z,17.3
2023-10-13T07:12:31.915Z,17.4
2023-10-13T07:14:33.881Z,17.4
2023-10-13T07:16:35.902Z,17.4
2023-10-13T07:18:37.792Z,17.5
2023-10-13T07:20:42.829Z,17.5
2023-10-13T07:22:44.792Z,17.5
2023-10-13T07:24:46.726Z,17.6
2023-10-13T07:26:48.683Z,17.6
2023-10-13T07:28:50.641Z,17.6
2023-10-13T07:30:52.583Z,17.6
2023-10-13T07:32:54.563Z,17.7
2023-10-13T07:34:59.584Z,17.7
2023-10-13T07:37:01.911Z,17.7
2023-10-13T07:39:21.519Z,17.8
2023-10-13T07:41:05.437Z,17.8
2023-10-13T07:43:07.391Z,17.8
2023-10-13T07:45:09.340Z,17.8
2023-10-13T07:54:22.800Z,17.9
2023-10-13T08:00:28.631Z,18
2023-10-13T08:14:45.353Z,18.2
2023-10-13T08:20:54.228Z,18.3
2023-10-13T08:24:58.123Z,18.5
2023-10-13T08:27:00.080Z,18.5
2023-10-13T08:29:03.487Z,18.6
2023-10-13T08:31:07.092Z,18.7
2023-10-13T08:33:09.018Z,18.8
2023-10-13T08:41:16.775Z,18.9
2023-10-13T08:45:23.715Z,19.1
2023-10-13T08:49:27.593Z,19.2
2023-10-13T08:51:51.767Z,19.4
2023-10-13T08:53:53.664Z,19.4
2023-10-13T08:55:55.615Z,19.4
2023-10-13T09:00:02.559Z,19.3
2023-10-13T09:02:04.503Z,19.3
2023-10-13T09:12:17.214Z,19.4
2023-10-13T09:14:19.260Z,19.5
2023-10-13T09:24:28.995Z,19.5
2023-10-13T09:26:33.799Z,19.5
2023-10-13T09:30:37.650Z,19.5
2023-10-13T09:32:39.586Z,19.5
2023-10-13T09:34:41.747Z,19.4
2023-10-13T09:38:45.319Z,19.4
2023-10-13T09:42:52.281Z,19.3
2023-10-13T09:44:54.188Z,19.4
2023-10-13T09:52:02.447Z,19.4
2023-10-13T10:02:15.228Z,19.5
2023-10-13T10:04:17.077Z,19.6
2023-10-13T10:06:18.993Z,19.5
2023-10-13T10:08:24.017Z,19.5
2023-10-13T10:14:29.760Z,19.6
2023-10-13T10:16:31.729Z,19.5
2023-10-13T10:20:35.532Z,19.5
2023-10-13T10:22:40.589Z,19.5
2023-10-13T10:24:42.475Z,19.5
2023-10-13T10:36:57.109Z,19.6
2023-10-13T10:38:59.029Z,19.7
2023-10-13T10:41:01.002Z,19.8
2023-10-13T10:42:03.450Z,19.8
2023-10-13T10:44:05.393Z,19.9
2023-10-13T10:46:07.326Z,19.9
2023-10-13T10:50:14.192Z,20.1
2023-10-13T10:52:16.114Z,20.1
2023-10-13T10:54:18.006Z,20.1
2023-10-13T10:58:21.849Z,20.3
2023-10-13T11:00:23.743Z,20.6
2023-10-13T11:02:25.688Z,20.7
2023-10-13T11:04:30.688Z,20.8
2023-10-13T11:06:32.617Z,20.8
2023-10-13T11:08:34.475Z,21
2023-10-13T11:10:36.426Z,21.1
2023-10-13T11:12:38.281Z,21.6
2023-10-13T11:14:40.190Z,21.8
2023-10-13T11:18:47.140Z,22.2
2023-10-13T11:20:48.983Z,22.6
2023-10-13T11:22:50.892Z,23.4
2023-10-13T11:24:52.798Z,24.2
2023-10-13T11:28:56.595Z,22.7
2023-10-13T11:37:07.178Z,21.4
2023-10-13T11:38:09.657Z,21.4
2023-10-13T11:42:13.416Z,21.5
2023-10-13T11:44:15.332Z,21.5
2023-10-13T11:48:22.196Z,21.4
2023-10-13T11:50:24.042Z,21.3
2023-10-13T11:52:25.957Z,21.3
2023-10-13T11:54:27.812Z,21.3
2023-10-13T11:58:31.601Z,21.3
2023-10-13T12:00:36.540Z,21.3
2023-10-13T12:02:38.544Z,21.3
2023-10-13T12:06:42.178Z,21.3
2023-10-13T12:08:44.076Z,21.4
2023-10-13T12:12:47.946Z,21.5
2023-10-13T12:14:52.821Z,21.7
2023-10-13T12:16:54.776Z,21.7
2023-10-13T12:18:56.603Z,21.6
2023-10-13T12:20:58.541Z,21.6
2023-10-13T12:23:00.339Z,21.8
2023-10-13T12:31:10.970Z,21.9
2023-10-13T12:35:33.448Z,21.8
2023-10-13T12:39:37.135Z,21.8
2023-10-13T12:45:45.821Z,21.9
2023-10-13T12:49:49.575Z,21.9
2023-10-13T12:55:58.311Z,21.9
2023-10-13T13:00:02.048Z,21.8
2023-10-13T13:04:05.776Z,21.8
2023-10-13T13:12:16.345Z,21.8
2023-10-13T13:16:20.203Z,21.7
2023-10-13T13:18:22.134Z,21.6
2023-10-13T13:20:23.854Z,21.6
2023-10-13T13:24:30.691Z,21.6
2023-10-13T13:28:34.428Z,21.6
2023-10-13T13:29:36.923Z,21.5
2023-10-13T13:31:38.785Z,21.4
2023-10-13T13:33:40.641Z,21.4
2023-10-13T13:39:49.374Z,21.2
2023-10-13T13:43:53.210Z,20.9
2023-10-13T13:45:55.023Z,20.8
2023-10-13T13:47:56.930Z,20.6
2023-10-13T13:49:58.800Z,20.4
2023-10-13T13:56:07.589Z,20
2023-10-13T13:58:09.456Z,20
2023-10-13T14:00:11.349Z,19.8
2023-10-13T14:02:13.312Z,19.8
2023-10-13T14:04:15.221Z,19.7
2023-10-13T14:06:20.129Z,19.5
2023-10-13T14:08:22.026Z,19.5
2023-10-13T14:14:27.784Z,19.2
2023-10-13T14:18:31.640Z,19.1
2023-10-13T14:22:38.781Z,19.1
2023-10-13T14:24:40.454Z,19.1
2023-10-13T14:25:42.995Z,19
2023-10-13T14:31:48.773Z,18.9
2023-10-13T14:35:55.710Z,18.6
2023-10-13T14:37:57.664Z,18.6
2023-10-13T14:39:59.552Z,18.5
2023-10-13T14:42:01.509Z,18.4
2023-10-13T14:44:04.969Z,18.4
2023-10-13T14:46:06.914Z,18.4
2023-10-13T14:48:11.945Z,18.4
2023-10-13T14:50:13.821Z,18.4
2023-10-13T14:52:15.750Z,18.4
2023-10-13T14:54:17.688Z,18.3
2023-10-13T14:56:19.632Z,18.3
2023-10-13T14:58:21.586Z,18.3
2023-10-13T15:00:23.558Z,18.2
2023-10-13T15:02:28.737Z,18.1
2023-10-13T15:04:30.572Z,18.1
2023-10-13T15:06:32.452Z,18.2
2023-10-13T15:08:34.389Z,18.1
2023-10-13T15:10:36.355Z,18.1
2023-10-13T15:12:38.279Z,18.1
2023-10-13T15:14:40.231Z,18.1
2023-10-13T15:16:45.668Z,18
2023-10-13T15:18:47.218Z,18
2023-10-13T15:21:52.091Z,17.9
2023-10-13T15:23:53.630Z,18
2023-10-13T15:25:55.664Z,17.9
2023-10-13T15:27:57.520Z,17.9
2023-10-13T15:30:02.567Z,17.8
2023-10-13T15:32:04.604Z,17.8
2023-10-13T15:34:06.458Z,17.8
2023-10-13T15:36:08.419Z,17.8
2023-10-13T15:38:10.417Z,17.8
2023-10-13T15:40:12.303Z,17.8
2023-10-13T15:42:14.261Z,17.7
2023-10-13T15:44:19.344Z,17.8
2023-10-13T15:47:07.552Z,17.8
2023-10-13T15:48:25.128Z,17.7
2023-10-13T15:54:29.097Z,17.7
2023-10-13T16:00:38.054Z,17.6
2023-10-13T16:04:41.986Z,17.6
2023-10-13T16:06:43.861Z,17.5
2023-10-13T16:16:56.723Z,17.6
2023-10-13T16:19:19.295Z,17.6
2023-10-13T16:29:32.142Z,17.6
2023-10-13T16:45:50.980Z,17.5
2023-10-13T16:47:52.881Z,17.4
2023-10-13T16:49:54.795Z,17.5
2023-10-13T16:51:56.881Z,17.5
2023-10-13T16:56:03.739Z,17.4
2023-10-13T16:58:05.765Z,17.4
2023-10-13T17:00:07.629Z,17.4
2023-10-13T17:02:09.610Z,17.4
2023-10-13T17:04:11.561Z,17.5
2023-10-13T17:08:18.585Z,17.6
2023-10-13T17:10:20.468Z,17.6
2023-10-13T17:12:22.495Z,17.7
2023-10-13T17:13:24.947Z,17.6
2023-10-13T17:17:28.869Z,17.6
2023-10-13T17:19:30.786Z,17.7
2023-10-13T17:21:35.878Z,17.8
2023-10-13T17:29:43.632Z,17.9
2023-10-13T17:33:47.568Z,17.8
2023-10-13T17:35:52.547Z,17.8
2023-10-13T17:37:54.540Z,17.8
2023-10-13T17:39:56.514Z,17.7
2023-10-13T17:41:58.417Z,17.7
2023-10-13T17:44:00.358Z,17.7
2023-10-13T17:46:02.381Z,17.6
2023-10-13T17:50:09.381Z,17.4
2023-10-13T17:52:11.237Z,17.2
2023-10-13T17:56:15.142Z,17
2023-10-13T18:02:20.981Z,17.1
2023-10-13T18:06:28.013Z,17.1
2023-10-13T18:08:29.942Z,17
2023-10-13T18:09:32.465Z,17
2023-10-13T18:19:45.297Z,17
2023-10-13T18:25:51.156Z,16.9
2023-10-13T18:34:02.089Z,16.9
2023-10-13T18:42:09.894Z,16.9
2023-10-13T18:44:11.817Z,16.9
2023-10-13T18:46:16.952Z,16.9
2023-10-13T18:48:18.839Z,16.9
2023-10-13T18:50:20.782Z,16.9
2023-10-13T18:52:22.728Z,16.9
2023-10-13T18:54:24.731Z,16.9
2023-10-13T18:58:28.888Z,16.8
2023-10-13T19:00:33.785Z,16.9
2023-10-13T19:02:35.658Z,16.8
2023-10-13T19:04:37.594Z,16.9
2023-10-13T19:28:07.808Z,17
2023-10-13T19:30:09.733Z,17
2023-10-13T19:32:11.681Z,17
2023-10-13T19:42:24.578Z,17.2
2023-10-13T19:44:26.589Z,17.1
2023-10-13T19:46:28.593Z,17.2
2023-10-13T19:48:30.550Z,17.2
2023-10-13T19:50:32.416Z,17.3
2023-10-13T19:52:34.391Z,17.3
2023-10-13T19:54:36.352Z,17.3
2023-10-13T20:00:45.474Z,17.2
2023-10-13T20:03:01.912Z,17.3
2023-10-13T20:07:05.821Z,17.3
2023-10-13T20:11:12.737Z,17.2
2023-10-13T20:13:14.793Z,17.2
2023-10-13T20:17:18.682Z,17.3
2023-10-13T20:19:20.870Z,17.3
2023-10-13T20:21:22.539Z,17.3
2023-10-13T20:23:27.558Z,17.4
2023-10-13T20:25:29.513Z,17.4
2023-10-13T20:27:31.609Z,17.4
2023-10-13T20:29:33.453Z,17.5
2023-10-13T20:33:37.426Z,17.6
2023-10-13T20:35:40.806Z,17.7
2023-10-13T20:37:45.789Z,17.7
2023-10-13T20:39:47.818Z,17.6
2023-10-13T20:41:49.703Z,17.6
2023-10-13T20:43:51.670Z,17.6
2023-10-13T20:45:53.650Z,17.5
2023-10-13T20:47:55.748Z,17.2
2023-10-13T20:49:57.522Z,17.1
2023-10-13T20:52:02.627Z,17
2023-10-13T20:57:09.254Z,16.9
2023-10-13T20:59:10.960Z,16.8
2023-10-13T21:01:13.103Z,16.6
2023-10-13T21:03:14.925Z,16.5
2023-10-13T21:05:19.967Z,16.5
2023-10-13T21:07:21.886Z,16.4
2023-10-13T21:09:24.042Z,16.2
2023-10-13T21:11:25.798Z,16.1
2023-10-13T21:13:27.770Z,16
2023-10-13T21:15:29.727Z,15.9
2023-10-13T21:17:31.673Z,15.9
2023-10-13T21:19:36.720Z,15.8
2023-10-13T21:23:40.650Z,15.9
2023-10-13T21:25:42.632Z,15.8
2023-10-13T21:29:46.545Z,15.8
2023-10-13T21:31:48.711Z,15.8
2023-10-13T21:33:53.631Z,15.8
2023-10-13T21:37:57.528Z,15.8
2023-10-13T21:39:59.560Z,15.8
2023-10-13T21:42:01.461Z,15.9
2023-10-13T21:44:03.417Z,15.9
2023-10-13T21:46:05.523Z,16
2023-10-13T21:48:10.865Z,16
2023-10-13T21:50:12.425Z,16.1
2023-10-13T21:52:14.381Z,16.1
2023-10-13T21:53:16.924Z,16
2023-10-13T21:55:18.904Z,16
2023-10-13T21:57:20.852Z,16
2023-10-13T21:59:23.118Z,16
2023-10-13T22:01:27.974Z,16
2023-10-13T22:03:29.957Z,15.9
2023-10-13T22:09:35.802Z,15.9
2023-10-13T22:11:37.752Z,15.9
2023-10-13T22:15:44.840Z,15.9
2023-10-13T22:17:46.866Z,15.9
2023-10-13T22:19:48.690Z,15.9
2023-10-13T22:21:50.734Z,16
2023-10-13T22:23:52.654Z,16
2023-10-13T22:25:54.612Z,16
2023-10-13T22:27:56.655Z,16
2023-10-13T22:30:01.642Z,16
2023-10-13T22:32:03.709Z,15.8
2023-10-13T22:38:09.530Z,14.3
2023-10-13T22:40:11.545Z,14.1
2023-10-13T22:42:13.521Z,14
2023-10-13T22:46:20.584Z,13.9
2023-10-13T22:48:22.541Z,13.8
2023-10-13T22:49:25.180Z,13.8
2023-10-13T22:51:27.134Z,13.8
2023-10-13T22:53:28.965Z,13.7
2023-10-13T22:55:30.955Z,13.7
2023-10-13T22:57:36.037Z,13.7
2023-10-13T22:59:37.977Z,13.7
2023-10-13T23:11:52.967Z,13.6
2023-10-13T23:13:54.954Z,13.6
2023-10-13T23:15:57.015Z,13.6
2023-10-13T23:55:04.761Z,13.4
